Archival Weather

Bob Hope

Burbank, California (KBUR)

Report from: Monday, January 29, 2024 7:53 AM PST
Current time: Friday, June 14, 2024 4:40 AM PDT

Current weather – Weather history – Daily summaries
Weather forecast

Temperature12.2°C (54.0°F)
Dew point4.4°C (39.9°F)
Winds 3 kts (1.5 m/s, 3.5 mph) North-Northeast (20°)
Visibility10 mi. (16.1 km)
Clouds Sky clear
Altimeter30.15 in.Hg (1021 mB)
Relative humidity59 %
Density altitude-448 ft. (-137 m)
Sea-level pressure102.0 kPa (1020 mB, 30.13 in.Hg)
Remarks Automated weather observing station with precipitation discriminator
Flight conditions Visual Meteorological Conditions
Raw dataKBUR 291553Z 02003KT 10SM CLR 12/04 A3015 RMK AO2 SLP203 T01220044
An error has occurred. This application may no longer respond until reloaded. Reload 🗙